sensor_id;sensor_type;location;lat;lon;timestamp;temperature;humidity
14101;DHT22;7127;49.372;8.166;2024-02-21T00:00:46;13.30;53.10
14101;DHT22;7127;49.372;8.166;2024-02-21T00:03:13;13.30;53.10
14101;DHT22;7127;49.372;8.166;2024-02-21T00:05:40;13.30;53.10
14101;DHT22;7127;49.372;8.166;2024-02-21T00:08:08;13.30;53.10
14101;DHT22;7127;49.372;8.166;2024-02-21T00:10:35;13.40;53.20
14101;DHT22;7127;49.372;8.166;2024-02-21T00:13:02;13.30;53.70
14101;DHT22;7127;49.372;8.166;2024-02-21T00:15:29;13.30;53.10
14101;DHT22;7127;49.372;8.166;2024-02-21T00:17:55;13.30;53.20
14101;DHT22;7127;49.372;8.166;2024-02-21T00:20:22;13.30;53.20
14101;DHT22;7127;49.372;8.166;2024-02-21T00:22:51;13.30;53.30
14101;DHT22;7127;49.372;8.166;2024-02-21T00:25:19;13.30;53.40
14101;DHT22;7127;49.372;8.166;2024-02-21T00:27:46;13.30;53.40
14101;DHT22;7127;49.372;8.166;2024-02-21T00:30:13;13.30;53.50
14101;DHT22;7127;49.372;8.166;2024-02-21T00:32:40;13.20;53.40
14101;DHT22;7127;49.372;8.166;2024-02-21T00:35:07;13.30;53.40
14101;DHT22;7127;49.372;8.166;2024-02-21T00:37:34;13.20;53.40
14101;DHT22;7127;49.372;8.166;2024-02-21T00:40:01;13.20;53.50
14101;DHT22;7127;49.372;8.166;2024-02-21T00:42:29;13.20;53.40
14101;DHT22;7127;49.372;8.166;2024-02-21T00:44:56;13.20;53.40
14101;DHT22;7127;49.372;8.166;2024-02-21T00:47:22;13.20;53.50
14101;DHT22;7127;49.372;8.166;2024-02-21T00:49:49;13.20;53.50
14101;DHT22;7127;49.372;8.166;2024-02-21T00:52:15;13.20;53.50
14101;DHT22;7127;49.372;8.166;2024-02-21T00:54:42;13.10;53.30
14101;DHT22;7127;49.372;8.166;2024-02-21T00:57:09;13.10;53.20
14101;DHT22;7127;49.372;8.166;2024-02-21T00:59:37;13.20;53.40
14101;DHT22;7127;49.372;8.166;2024-02-21T01:02:04;13.20;53.40
14101;DHT22;7127;49.372;8.166;2024-02-21T01:04:31;13.20;53.40
14101;DHT22;7127;49.372;8.166;2024-02-21T01:06:57;13.20;53.40
14101;DHT22;7127;49.372;8.166;2024-02-21T01:09:24;13.20;53.30
14101;DHT22;7127;49.372;8.166;2024-02-21T01:11:51;13.20;53.40
14101;DHT22;7127;49.372;8.166;2024-02-21T01:14:18;13.20;53.40
14101;DHT22;7127;49.372;8.166;2024-02-21T01:16:46;13.20;53.40
14101;DHT22;7127;49.372;8.166;2024-02-21T01:19:13;13.20;53.40
14101;DHT22;7127;49.372;8.166;2024-02-21T01:21:40;13.20;53.40
14101;DHT22;7127;49.372;8.166;2024-02-21T01:24:07;13.20;53.30
14101;DHT22;7127;49.372;8.166;2024-02-21T01:26:33;13.20;53.30
14101;DHT22;7127;49.372;8.166;2024-02-21T01:29:00;13.20;53.40
14101;DHT22;7127;49.372;8.166;2024-02-21T01:31:27;13.20;53.30
14101;DHT22;7127;49.372;8.166;2024-02-21T01:33:55;13.20;53.40
14101;DHT22;7127;49.372;8.166;2024-02-21T01:36:22;13.20;53.40
14101;DHT22;7127;49.372;8.166;2024-02-21T01:38:49;13.20;53.40
14101;DHT22;7127;49.372;8.166;2024-02-21T01:41:15;13.20;53.50
14101;DHT22;7127;49.372;8.166;2024-02-21T01:43:43;13.20;53.50
14101;DHT22;7127;49.372;8.166;2024-02-21T01:46:10;13.20;53.50
14101;DHT22;7127;49.372;8.166;2024-02-21T01:48:37;13.20;53.50
14101;DHT22;7127;49.372;8.166;2024-02-21T01:51:05;13.20;53.50
14101;DHT22;7127;49.372;8.166;2024-02-21T01:53:35;13.20;53.40
14101;DHT22;7127;49.372;8.166;2024-02-21T01:56:04;13.20;53.60
14101;DHT22;7127;49.372;8.166;2024-02-21T01:58:32;13.20;53.40
14101;DHT22;7127;49.372;8.166;2024-02-21T02:01:02;13.20;53.40
14101;DHT22;7127;49.372;8.166;2024-02-21T02:03:29;13.20;53.30
14101;DHT22;7127;49.372;8.166;2024-02-21T02:05:56;13.10;53.10
14101;DHT22;7127;49.372;8.166;2024-02-21T02:08:25;13.20;53.30
14101;DHT22;7127;49.372;8.166;2024-02-21T02:10:52;13.10;53.20
14101;DHT22;7127;49.372;8.166;2024-02-21T02:13:19;13.10;53.30
14101;DHT22;7127;49.372;8.166;2024-02-21T02:15:47;13.10;53.40
14101;DHT22;7127;49.372;8.166;2024-02-21T02:18:15;13.10;53.40
14101;DHT22;7127;49.372;8.166;2024-02-21T02:20:43;13.10;53.40
14101;DHT22;7127;49.372;8.166;2024-02-21T02:23:12;13.10;53.60
14101;DHT22;7127;49.372;8.166;2024-02-21T02:25:41;13.10;53.50
14101;DHT22;7127;49.372;8.166;2024-02-21T02:28:09;13.00;53.40
14101;DHT22;7127;49.372;8.166;2024-02-21T02:30:36;13.00;53.40
14101;DHT22;7127;49.372;8.166;2024-02-21T02:33:03;13.00;53.30
14101;DHT22;7127;49.372;8.166;2024-02-21T02:35:31;13.00;53.40
14101;DHT22;7127;49.372;8.166;2024-02-21T02:37:58;13.00;53.40
14101;DHT22;7127;49.372;8.166;2024-02-21T02:40:25;13.00;53.50
14101;DHT22;7127;49.372;8.166;2024-02-21T02:42:53;13.00;53.60
14101;DHT22;7127;49.372;8.166;2024-02-21T02:45:22;13.00;54.10
14101;DHT22;7127;49.372;8.166;2024-02-21T02:47:51;13.00;53.60
14101;DHT22;7127;49.372;8.166;2024-02-21T02:50:19;13.00;53.60
14101;DHT22;7127;49.372;8.166;2024-02-21T02:52:46;13.10;53.60
14101;DHT22;7127;49.372;8.166;2024-02-21T02:55:14;13.00;53.60
14101;DHT22;7127;49.372;8.166;2024-02-21T02:57:40;13.10;53.70
14101;DHT22;7127;49.372;8.166;2024-02-21T03:00:10;13.10;53.70
14101;DHT22;7127;49.372;8.166;2024-02-21T03:02:38;13.10;53.70
14101;DHT22;7127;49.372;8.166;2024-02-21T03:05:12;13.10;53.70
14101;DHT22;7127;49.372;8.166;2024-02-21T03:07:40;13.10;53.70
14101;DHT22;7127;49.372;8.166;2024-02-21T03:10:08;13.10;53.60
14101;DHT22;7127;49.372;8.166;2024-02-21T03:12:35;13.10;53.70
14101;DHT22;7127;49.372;8.166;2024-02-21T03:15:02;13.10;53.60
14101;DHT22;7127;49.372;8.166;2024-02-21T03:17:30;13.10;53.70
14101;DHT22;7127;49.372;8.166;2024-02-21T03:19:57;13.10;53.60
14101;DHT22;7127;49.372;8.166;2024-02-21T03:22:24;13.10;53.60
14101;DHT22;7127;49.372;8.166;2024-02-21T03:24:51;13.10;53.60
14101;DHT22;7127;49.372;8.166;2024-02-21T03:27:18;13.00;53.50
14101;DHT22;7127;49.372;8.166;2024-02-21T03:29:44;13.00;53.60
14101;DHT22;7127;49.372;8.166;2024-02-21T03:32:11;13.00;53.50
14101;DHT22;7127;49.372;8.166;2024-02-21T03:34:39;13.00;53.60
14101;DHT22;7127;49.372;8.166;2024-02-21T03:37:06;12.90;53.60
14101;DHT22;7127;49.372;8.166;2024-02-21T03:39:33;12.90;53.70
14101;DHT22;7127;49.372;8.166;2024-02-21T03:42:00;12.80;53.50
14101;DHT22;7127;49.372;8.166;2024-02-21T03:44:30;12.80;53.60
14101;DHT22;7127;49.372;8.166;2024-02-21T03:46:57;12.80;53.60
14101;DHT22;7127;49.372;8.166;2024-02-21T03:49:23;12.80;53.60
14101;DHT22;7127;49.372;8.166;2024-02-21T03:51:51;12.70;53.50
14101;DHT22;7127;49.372;8.166;2024-02-21T03:54:19;12.70;53.60
14101;DHT22;7127;49.372;8.166;2024-02-21T03:56:46;12.60;53.50
14101;DHT22;7127;49.372;8.166;2024-02-21T03:59:14;12.70;53.70
14101;DHT22;7127;49.372;8.166;2024-02-21T04:01:41;12.60;53.70
14101;DHT22;7127;49.372;8.166;2024-02-21T04:04:07;12.50;54.30
14101;DHT22;7127;49.372;8.166;2024-02-21T04:06:34;12.50;53.80
14101;DHT22;7127;49.372;8.166;2024-02-21T04:09:03;12.50;54.00
14101;DHT22;7127;49.372;8.166;2024-02-21T04:11:30;12.50;54.10
14101;DHT22;7127;49.372;8.166;2024-02-21T04:13:57;12.50;54.10
14101;DHT22;7127;49.372;8.166;2024-02-21T04:16:24;12.50;54.10
14101;DHT22;7127;49.372;8.166;2024-02-21T04:18:50;12.40;54.00
14101;DHT22;7127;49.372;8.166;2024-02-21T04:21:17;12.50;54.10
14101;DHT22;7127;49.372;8.166;2024-02-21T04:23:44;12.50;54.10
14101;DHT22;7127;49.372;8.166;2024-02-21T04:26:12;12.50;54.10
14101;DHT22;7127;49.372;8.166;2024-02-21T04:28:39;12.50;54.10
14101;DHT22;7127;49.372;8.166;2024-02-21T04:31:06;12.60;54.10
14101;DHT22;7127;49.372;8.166;2024-02-21T04:33:33;12.50;54.10
14101;DHT22;7127;49.372;8.166;2024-02-21T04:36:00;12.50;54.00
14101;DHT22;7127;49.372;8.166;2024-02-21T04:38:27;12.40;54.00
14101;DHT22;7127;49.372;8.166;2024-02-21T04:40:54;12.40;54.00
14101;DHT22;7127;49.372;8.166;2024-02-21T04:43:25;12.50;54.00
14101;DHT22;7127;49.372;8.166;2024-02-21T04:45:51;12.50;54.60
14101;DHT22;7127;49.372;8.166;2024-02-21T04:48:19;12.40;54.00
14101;DHT22;7127;49.372;8.166;2024-02-21T04:50:46;12.40;54.00
14101;DHT22;7127;49.372;8.166;2024-02-21T04:53:13;12.40;54.10
14101;DHT22;7127;49.372;8.166;2024-02-21T04:55:40;12.40;54.10
14101;DHT22;7127;49.372;8.166;2024-02-21T04:58:07;12.40;54.10
14101;DHT22;7127;49.372;8.166;2024-02-21T05:00:35;12.30;54.00
14101;DHT22;7127;49.372;8.166;2024-02-21T05:03:02;12.30;54.00
14101;DHT22;7127;49.372;8.166;2024-02-21T05:05:29;12.30;54.00
14101;DHT22;7127;49.372;8.166;2024-02-21T05:07:56;12.20;53.90
14101;DHT22;7127;49.372;8.166;2024-02-21T05:10:22;12.30;54.10
14101;DHT22;7127;49.372;8.166;2024-02-21T05:12:49;12.10;53.90
14101;DHT22;7127;49.372;8.166;2024-02-21T05:15:16;12.10;53.90
14101;DHT22;7127;49.372;8.166;2024-02-21T05:17:44;12.10;53.90
14101;DHT22;7127;49.372;8.166;2024-02-21T05:20:11;12.00;53.90
14101;DHT22;7127;49.372;8.166;2024-02-21T05:22:38;12.00;53.90
14101;DHT22;7127;49.372;8.166;2024-02-21T05:25:06;12.00;53.90
14101;DHT22;7127;49.372;8.166;2024-02-21T05:27:33;11.90;53.90
14101;DHT22;7127;49.372;8.166;2024-02-21T05:30:01;11.90;53.90
14101;DHT22;7127;49.372;8.166;2024-02-21T05:32:28;11.80;53.90
14101;DHT22;7127;49.372;8.166;2024-02-21T05:34:56;11.80;53.90
14101;DHT22;7127;49.372;8.166;2024-02-21T05:37:24;11.80;53.90
14101;DHT22;7127;49.372;8.166;2024-02-21T05:39:50;11.70;54.40
14101;DHT22;7127;49.372;8.166;2024-02-21T05:42:17;11.70;53.90
14101;DHT22;7127;49.372;8.166;2024-02-21T05:44:44;11.60;53.90
14101;DHT22;7127;49.372;8.166;2024-02-21T05:47:11;11.60;54.00
14101;DHT22;7127;49.372;8.166;2024-02-21T05:49:40;11.40;53.80
14101;DHT22;7127;49.372;8.166;2024-02-21T05:52:08;11.50;54.10
14101;DHT22;7127;49.372;8.166;2024-02-21T05:54:37;11.40;54.10
14101;DHT22;7127;49.372;8.166;2024-02-21T05:57:05;11.40;54.10
14101;DHT22;7127;49.372;8.166;2024-02-21T05:59:32;11.40;54.10
14101;DHT22;7127;49.372;8.166;2024-02-21T06:02:00;11.50;54.30
14101;DHT22;7127;49.372;8.166;2024-02-21T06:04:29;11.30;54.10
14101;DHT22;7127;49.372;8.166;2024-02-21T06:06:56;11.20;54.20
14101;DHT22;7127;49.372;8.166;2024-02-21T06:09:24;11.30;54.30
14101;DHT22;7127;49.372;8.166;2024-02-21T06:11:51;11.20;54.30
14101;DHT22;7127;49.372;8.166;2024-02-21T06:14:17;11.20;54.40
14101;DHT22;7127;49.372;8.166;2024-02-21T06:16:44;11.20;54.50
14101;DHT22;7127;49.372;8.166;2024-02-21T06:19:11;11.20;54.40
14101;DHT22;7127;49.372;8.166;2024-02-21T06:21:38;11.10;54.40
14101;DHT22;7127;49.372;8.166;2024-02-21T06:24:05;11.10;54.40
14101;DHT22;7127;49.372;8.166;2024-02-21T06:26:33;11.10;54.40
14101;DHT22;7127;49.372;8.166;2024-02-21T06:29:00;11.10;54.50
14101;DHT22;7127;49.372;8.166;2024-02-21T06:31:27;11.10;54.50
14101;DHT22;7127;49.372;8.166;2024-02-21T06:33:54;11.10;54.70
14101;DHT22;7127;49.372;8.166;2024-02-21T06:36:21;11.00;54.50
14101;DHT22;7127;49.372;8.166;2024-02-21T06:38:48;11.10;54.70
14101;DHT22;7127;49.372;8.166;2024-02-21T06:41:15;11.00;54.60
14101;DHT22;7127;49.372;8.166;2024-02-21T06:43:45;11.00;54.70
14101;DHT22;7127;49.372;8.166;2024-02-21T06:46:12;11.00;54.70
14101;DHT22;7127;49.372;8.166;2024-02-21T06:48:39;11.00;54.80
14101;DHT22;7127;49.372;8.166;2024-02-21T06:51:06;11.00;54.80
14101;DHT22;7127;49.372;8.166;2024-02-21T06:53:32;11.10;54.90
14101;DHT22;7127;49.372;8.166;2024-02-21T06:56:00;11.10;54.90
14101;DHT22;7127;49.372;8.166;2024-02-21T06:58:27;11.10;55.00
14101;DHT22;7127;49.372;8.166;2024-02-21T07:00:55;11.10;55.00
14101;DHT22;7127;49.372;8.166;2024-02-21T07:03:22;11.10;55.00
14101;DHT22;7127;49.372;8.166;2024-02-21T07:05:50;11.20;55.00
14101;DHT22;7127;49.372;8.166;2024-02-21T07:08:16;11.10;55.00
14101;DHT22;7127;49.372;8.166;2024-02-21T07:10:43;11.20;55.10
14101;DHT22;7127;49.372;8.166;2024-02-21T07:13:10;11.20;55.10
14101;DHT22;7127;49.372;8.166;2024-02-21T07:15:37;11.20;55.00
14101;DHT22;7127;49.372;8.166;2024-02-21T07:18:05;11.30;55.10
14101;DHT22;7127;49.372;8.166;2024-02-21T07:20:32;11.20;55.00
14101;DHT22;7127;49.372;8.166;2024-02-21T07:23:02;11.30;55.10
14101;DHT22;7127;49.372;8.166;2024-02-21T07:25:29;11.30;55.10
14101;DHT22;7127;49.372;8.166;2024-02-21T07:27:56;11.30;55.20
14101;DHT22;7127;49.372;8.166;2024-02-21T07:30:22;11.30;55.10
14101;DHT22;7127;49.372;8.166;2024-02-21T07:32:49;11.40;55.20
14101;DHT22;7127;49.372;8.166;2024-02-21T07:35:40;11.40;55.10
14101;DHT22;7127;49.372;8.166;2024-02-21T07:38:11;11.40;55.20
14101;DHT22;7127;49.372;8.166;2024-02-21T07:40:38;11.40;55.20
14101;DHT22;7127;49.372;8.166;2024-02-21T07:43:05;11.40;55.20
14101;DHT22;7127;49.372;8.166;2024-02-21T07:45:31;11.50;55.40
14101;DHT22;7127;49.372;8.166;2024-02-21T07:47:58;11.50;55.40
14101;DHT22;7127;49.372;8.166;2024-02-21T07:50:26;11.60;55.50
14101;DHT22;7127;49.372;8.166;2024-02-21T07:52:53;11.60;55.50
14101;DHT22;7127;49.372;8.166;2024-02-21T07:55:20;11.70;55.50
14101;DHT22;7127;49.372;8.166;2024-02-21T07:57:47;11.70;55.50
14101;DHT22;7127;49.372;8.166;2024-02-21T08:00:15;11.80;55.60
14101;DHT22;7127;49.372;8.166;2024-02-21T08:02:45;11.80;55.60
14101;DHT22;7127;49.372;8.166;2024-02-21T08:05:12;11.80;55.50
14101;DHT22;7127;49.372;8.166;2024-02-21T08:07:40;11.90;55.50
14101;DHT22;7127;49.372;8.166;2024-02-21T08:10:08;12.00;55.60
14101;DHT22;7127;49.372;8.166;2024-02-21T08:12:35;12.00;55.50
14101;DHT22;7127;49.372;8.166;2024-02-21T08:15:04;12.00;55.50
14101;DHT22;7127;49.372;8.166;2024-02-21T08:17:30;12.10;55.50
14101;DHT22;7127;49.372;8.166;2024-02-21T08:19:57;12.10;55.40
14101;DHT22;7127;49.372;8.166;2024-02-21T08:22:24;12.10;55.30
14101;DHT22;7127;49.372;8.166;2024-02-21T08:24:52;12.40;55.50
14101;DHT22;7127;49.372;8.166;2024-02-21T08:27:19;12.20;55.40
14101;DHT22;7127;49.372;8.166;2024-02-21T08:29:46;12.30;55.40
14101;DHT22;7127;49.372;8.166;2024-02-21T08:32:13;12.30;55.40
14101;DHT22;7127;49.372;8.166;2024-02-21T08:34:39;12.30;55.40
14101;DHT22;7127;49.372;8.166;2024-02-21T08:37:06;12.40;55.50
14101;DHT22;7127;49.372;8.166;2024-02-21T08:39:33;12.30;55.40
14101;DHT22;7127;49.372;8.166;2024-02-21T08:42:01;12.50;55.40
14101;DHT22;7127;49.372;8.166;2024-02-21T08:44:28;12.50;55.40
14101;DHT22;7127;49.372;8.166;2024-02-21T08:46:55;12.50;55.40
14101;DHT22;7127;49.372;8.166;2024-02-21T08:49:22;12.60;55.40
14101;DHT22;7127;49.372;8.166;2024-02-21T08:51:49;12.60;55.50
14101;DHT22;7127;49.372;8.166;2024-02-21T08:54:16;12.60;55.40
14101;DHT22;7127;49.372;8.166;2024-02-21T08:56:43;12.70;55.40
14101;DHT22;7127;49.372;8.166;2024-02-21T08:59:11;12.70;55.40
14101;DHT22;7127;49.372;8.166;2024-02-21T09:01:40;12.80;55.50
14101;DHT22;7127;49.372;8.166;2024-02-21T09:04:07;12.80;55.40
14101;DHT22;7127;49.372;8.166;2024-02-21T09:06:34;12.80;55.30
14101;DHT22;7127;49.372;8.166;2024-02-21T09:09:04;12.90;55.40
14101;DHT22;7127;49.372;8.166;2024-02-21T09:11:33;13.00;55.40
14101;DHT22;7127;49.372;8.166;2024-02-21T09:14:00;13.00;55.30
14101;DHT22;7127;49.372;8.166;2024-02-21T09:16:30;13.10;55.30
14101;DHT22;7127;49.372;8.166;2024-02-21T09:18:57;13.10;55.30
14101;DHT22;7127;49.372;8.166;2024-02-21T09:21:24;13.20;55.40
14101;DHT22;7127;49.372;8.166;2024-02-21T09:23:51;13.20;55.30
14101;DHT22;7127;49.372;8.166;2024-02-21T09:26:17;13.20;55.30
14101;DHT22;7127;49.372;8.166;2024-02-21T09:28:44;13.30;55.40
14101;DHT22;7127;49.372;8.166;2024-02-21T09:31:11;13.30;55.30
14101;DHT22;7127;49.372;8.166;2024-02-21T09:33:39;13.40;55.40
14101;DHT22;7127;49.372;8.166;2024-02-21T09:36:06;13.50;55.50
14101;DHT22;7127;49.372;8.166;2024-02-21T09:38:33;13.50;55.50
14101;DHT22;7127;49.372;8.166;2024-02-21T09:41:11;13.60;55.60
14101;DHT22;7127;49.372;8.166;2024-02-21T09:43:41;13.60;56.10
14101;DHT22;7127;49.372;8.166;2024-02-21T09:46:15;13.70;56.00
14101;DHT22;7127;49.372;8.166;2024-02-21T09:48:54;13.80;56.10
14101;DHT22;7127;49.372;8.166;2024-02-21T09:51:28;13.90;56.30
14101;DHT22;7127;49.372;8.166;2024-02-21T09:53:56;13.90;56.20
14101;DHT22;7127;49.372;8.166;2024-02-21T09:56:24;14.00;56.10
14101;DHT22;7127;49.372;8.166;2024-02-21T09:58:50;14.10;56.20
14101;DHT22;7127;49.372;8.166;2024-02-21T10:01:17;14.10;56.10
14101;DHT22;7127;49.372;8.166;2024-02-21T10:03:46;14.20;55.90
14101;DHT22;7127;49.372;8.166;2024-02-21T10:06:13;14.20;55.70
14101;DHT22;7127;49.372;8.166;2024-02-21T10:08:40;14.30;55.70
14101;DHT22;7127;49.372;8.166;2024-02-21T10:11:06;14.40;55.70
14101;DHT22;7127;49.372;8.166;2024-02-21T10:13:34;14.50;55.60
14101;DHT22;7127;49.372;8.166;2024-02-21T10:16:05;14.60;55.60
14101;DHT22;7127;49.372;8.166;2024-02-21T10:18:32;14.60;55.40
14101;DHT22;7127;49.372;8.166;2024-02-21T10:21:05;14.60;55.10
14101;DHT22;7127;49.372;8.166;2024-02-21T10:23:45;14.70;55.10
14101;DHT22;7127;49.372;8.166;2024-02-21T10:26:13;14.80;55.40
14101;DHT22;7127;49.372;8.166;2024-02-21T10:28:40;14.80;55.30
14101;DHT22;7127;49.372;8.166;2024-02-21T10:31:08;14.90;55.20
14101;DHT22;7127;49.372;8.166;2024-02-21T10:33:37;14.90;55.10
14101;DHT22;7127;49.372;8.166;2024-02-21T10:36:09;15.10;55.10
14101;DHT22;7127;49.372;8.166;2024-02-21T10:38:37;15.10;54.90
14101;DHT22;7127;49.372;8.166;2024-02-21T10:41:05;15.10;54.80
14101;DHT22;7127;49.372;8.166;2024-02-21T10:43:38;15.20;54.80
14101;DHT22;7127;49.372;8.166;2024-02-21T10:46:06;15.30;54.50
14101;DHT22;7127;49.372;8.166;2024-02-21T10:48:42;15.30;54.50
14101;DHT22;7127;49.372;8.166;2024-02-21T10:51:15;15.40;54.20
14101;DHT22;7127;49.372;8.166;2024-02-21T10:53:46;15.50;54.10
14101;DHT22;7127;49.372;8.166;2024-02-21T10:56:22;15.40;54.10
14101;DHT22;7127;49.372;8.166;2024-02-21T10:58:52;15.50;53.70
14101;DHT22;7127;49.372;8.166;2024-02-21T11:01:21;15.50;53.90
14101;DHT22;7127;49.372;8.166;2024-02-21T11:03:51;15.60;53.60
14101;DHT22;7127;49.372;8.166;2024-02-21T11:06:20;15.60;53.40
14101;DHT22;7127;49.372;8.166;2024-02-21T11:08:48;15.70;52.80
14101;DHT22;7127;49.372;8.166;2024-02-21T11:11:25;15.70;53.00
14101;DHT22;7127;49.372;8.166;2024-02-21T11:13:52;15.70;53.00
14101;DHT22;7127;49.372;8.166;2024-02-21T11:16:22;15.80;52.90
14101;DHT22;7127;49.372;8.166;2024-02-21T11:18:49;15.80;52.80
14101;DHT22;7127;49.372;8.166;2024-02-21T11:21:16;15.80;52.90
14101;DHT22;7127;49.372;8.166;2024-02-21T11:23:54;15.90;53.00
14101;DHT22;7127;49.372;8.166;2024-02-21T11:26:21;15.90;52.20
14101;DHT22;7127;49.372;8.166;2024-02-21T11:28:56;15.90;52.50
14101;DHT22;7127;49.372;8.166;2024-02-21T11:31:23;16.00;51.80
14101;DHT22;7127;49.372;8.166;2024-02-21T11:33:53;16.00;52.10
14101;DHT22;7127;49.372;8.166;2024-02-21T11:36:24;16.00;52.00
14101;DHT22;7127;49.372;8.166;2024-02-21T11:38:53;16.00;51.80
14101;DHT22;7127;49.372;8.166;2024-02-21T11:41:19;16.00;51.80
14101;DHT22;7127;49.372;8.166;2024-02-21T11:43:48;16.00;51.50
14101;DHT22;7127;49.372;8.166;2024-02-21T11:46:15;16.10;51.80
14101;DHT22;7127;49.372;8.166;2024-02-21T11:48:42;16.00;51.80
14101;DHT22;7127;49.372;8.166;2024-02-21T11:51:09;16.10;52.10
14101;DHT22;7127;49.372;8.166;2024-02-21T11:53:36;16.10;52.10
14101;DHT22;7127;49.372;8.166;2024-02-21T11:56:05;16.10;52.10
14101;DHT22;7127;49.372;8.166;2024-02-21T11:58:32;16.20;52.20
14101;DHT22;7127;49.372;8.166;2024-02-21T12:00:59;16.30;52.30
14101;DHT22;7127;49.372;8.166;2024-02-21T12:03:28;16.20;52.10
14101;DHT22;7127;49.372;8.166;2024-02-21T12:05:55;16.20;52.20
14101;DHT22;7127;49.372;8.166;2024-02-21T12:08:24;16.30;52.20
14101;DHT22;7127;49.372;8.166;2024-02-21T12:10:51;16.30;52.20
14101;DHT22;7127;49.372;8.166;2024-02-21T12:13:22;16.30;52.10
14101;DHT22;7127;49.372;8.166;2024-02-21T12:15:49;16.30;52.00
14101;DHT22;7127;49.372;8.166;2024-02-21T12:18:16;16.30;52.00
14101;DHT22;7127;49.372;8.166;2024-02-21T12:20:43;16.40;52.00
14101;DHT22;7127;49.372;8.166;2024-02-21T12:23:11;16.40;51.90
14101;DHT22;7127;49.372;8.166;2024-02-21T12:25:39;16.40;52.00
14101;DHT22;7127;49.372;8.166;2024-02-21T12:28:05;16.40;51.90
14101;DHT22;7127;49.372;8.166;2024-02-21T12:30:34;16.40;51.90
14101;DHT22;7127;49.372;8.166;2024-02-21T12:33:03;16.50;51.90
14101;DHT22;7127;49.372;8.166;2024-02-21T12:35:30;16.50;51.90
14101;DHT22;7127;49.372;8.166;2024-02-21T12:37:58;16.50;51.90
14101;DHT22;7127;49.372;8.166;2024-02-21T12:40:25;16.50;51.80
14101;DHT22;7127;49.372;8.166;2024-02-21T12:42:58;16.50;51.90
14101;DHT22;7127;49.372;8.166;2024-02-21T12:45:24;16.50;51.90
14101;DHT22;7127;49.372;8.166;2024-02-21T12:47:53;16.50;51.80
14101;DHT22;7127;49.372;8.166;2024-02-21T12:50:20;16.50;51.70
14101;DHT22;7127;49.372;8.166;2024-02-21T12:52:48;16.60;51.70
14101;DHT22;7127;49.372;8.166;2024-02-21T12:55:15;16.60;51.70
14101;DHT22;7127;49.372;8.166;2024-02-21T12:57:42;16.60;51.70
14101;DHT22;7127;49.372;8.166;2024-02-21T13:00:10;16.60;51.70
14101;DHT22;7127;49.372;8.166;2024-02-21T13:02:37;16.60;51.70
14101;DHT22;7127;49.372;8.166;2024-02-21T13:05:06;16.60;51.60
14101;DHT22;7127;49.372;8.166;2024-02-21T13:07:33;16.60;51.50
14101;DHT22;7127;49.372;8.166;2024-02-21T13:10:00;16.70;51.50
14101;DHT22;7127;49.372;8.166;2024-02-21T13:12:27;16.60;51.40
14101;DHT22;7127;49.372;8.166;2024-02-21T13:14:56;16.60;51.40
14101;DHT22;7127;49.372;8.166;2024-02-21T13:17:22;16.60;51.30
14101;DHT22;7127;49.372;8.166;2024-02-21T13:19:49;16.70;51.30
14101;DHT22;7127;49.372;8.166;2024-02-21T13:22:18;16.70;51.30
14101;DHT22;7127;49.372;8.166;2024-02-21T13:24:45;16.60;51.20
14101;DHT22;7127;49.372;8.166;2024-02-21T13:27:12;16.70;51.20
14101;DHT22;7127;49.372;8.166;2024-02-21T13:29:40;16.70;51.20
14101;DHT22;7127;49.372;8.166;2024-02-21T13:32:07;16.70;51.20
14101;DHT22;7127;49.372;8.166;2024-02-21T13:34:33;16.60;51.00
14101;DHT22;7127;49.372;8.166;2024-02-21T13:37:00;16.70;51.10
14101;DHT22;7127;49.372;8.166;2024-02-21T13:39:30;16.60;51.00
14101;DHT22;7127;49.372;8.166;2024-02-21T13:42:00;16.60;50.90
14101;DHT22;7127;49.372;8.166;2024-02-21T13:44:27;16.60;50.90
14101;DHT22;7127;49.372;8.166;2024-02-21T13:46:52;16.60;50.80
14101;DHT22;7127;49.372;8.166;2024-02-21T13:49:19;16.60;50.80
14101;DHT22;7127;49.372;8.166;2024-02-21T13:51:46;16.60;50.80
14101;DHT22;7127;49.372;8.166;2024-02-21T13:54:13;16.60;50.80
14101;DHT22;7127;49.372;8.166;2024-02-21T13:56:43;16.60;50.80
14101;DHT22;7127;49.372;8.166;2024-02-21T13:59:12;16.60;50.80
14101;DHT22;7127;49.372;8.166;2024-02-21T14:01:38;16.50;50.60
14101;DHT22;7127;49.372;8.166;2024-02-21T14:04:05;16.50;50.60
14101;DHT22;7127;49.372;8.166;2024-02-21T14:06:32;16.60;50.60
14101;DHT22;7127;49.372;8.166;2024-02-21T14:08:59;16.50;50.60
14101;DHT22;7127;49.372;8.166;2024-02-21T14:11:26;16.50;50.50
14101;DHT22;7127;49.372;8.166;2024-02-21T14:13:54;16.50;50.40
14101;DHT22;7127;49.372;8.166;2024-02-21T14:16:22;16.50;50.40
14101;DHT22;7127;49.372;8.166;2024-02-21T14:18:49;16.50;50.50
14101;DHT22;7127;49.372;8.166;2024-02-21T14:21:16;16.50;50.50
14101;DHT22;7127;49.372;8.166;2024-02-21T14:23:43;16.50;50.40
14101;DHT22;7127;49.372;8.166;2024-02-21T14:26:10;16.50;50.50
14101;DHT22;7127;49.372;8.166;2024-02-21T14:28:37;16.50;50.40
14101;DHT22;7127;49.372;8.166;2024-02-21T14:31:05;16.40;50.30
14101;DHT22;7127;49.372;8.166;2024-02-21T14:33:34;16.40;50.30
14101;DHT22;7127;49.372;8.166;2024-02-21T14:36:01;16.40;50.40
14101;DHT22;7127;49.372;8.166;2024-02-21T14:38:29;16.40;50.30
14101;DHT22;7127;49.372;8.166;2024-02-21T14:40:56;16.40;50.40
14101;DHT22;7127;49.372;8.166;2024-02-21T14:43:22;16.40;50.30
14101;DHT22;7127;49.372;8.166;2024-02-21T14:45:49;16.40;50.30
14101;DHT22;7127;49.372;8.166;2024-02-21T14:48:18;16.40;50.30
14101;DHT22;7127;49.372;8.166;2024-02-21T14:50:47;16.40;50.30
14101;DHT22;7127;49.372;8.166;2024-02-21T14:53:13;16.40;50.30
14101;DHT22;7127;49.372;8.166;2024-02-21T14:55:40;16.40;50.30
14101;DHT22;7127;49.372;8.166;2024-02-21T14:58:07;16.30;50.20
14101;DHT22;7127;49.372;8.166;2024-02-21T15:00:34;16.30;50.20
14101;DHT22;7127;49.372;8.166;2024-02-21T15:03:01;16.30;50.20
14101;DHT22;7127;49.372;8.166;2024-02-21T15:05:29;16.30;50.20
14101;DHT22;7127;49.372;8.166;2024-02-21T15:07:56;16.30;50.20
14101;DHT22;7127;49.372;8.166;2024-02-21T15:10:24;16.30;50.20
14101;DHT22;7127;49.372;8.166;2024-02-21T15:12:53;16.30;50.10
14101;DHT22;7127;49.372;8.166;2024-02-21T15:15:20;16.30;50.00
14101;DHT22;7127;49.372;8.166;2024-02-21T15:17:47;16.30;50.00
14101;DHT22;7127;49.372;8.166;2024-02-21T15:20:14;16.20;49.80
14101;DHT22;7127;49.372;8.166;2024-02-21T15:22:42;16.20;49.70
14101;DHT22;7127;49.372;8.166;2024-02-21T15:25:09;16.20;49.70
14101;DHT22;7127;49.372;8.166;2024-02-21T15:27:40;16.10;49.50
14101;DHT22;7127;49.372;8.166;2024-02-21T15:30:09;16.10;49.50
14101;DHT22;7127;49.372;8.166;2024-02-21T15:32:36;16.00;49.50
14101;DHT22;7127;49.372;8.166;2024-02-21T15:35:03;16.00;49.50
14101;DHT22;7127;49.372;8.166;2024-02-21T15:37:31;15.90;49.50
14101;DHT22;7127;49.372;8.166;2024-02-21T15:39:59;15.90;49.70
14101;DHT22;7127;49.372;8.166;2024-02-21T15:42:26;15.90;49.80
14101;DHT22;7127;49.372;8.166;2024-02-21T15:44:53;15.90;49.90
14101;DHT22;7127;49.372;8.166;2024-02-21T15:47:20;15.80;49.80